createdAt,value
2023-04-04T00:00:09.685Z,58.61
2023-04-04T00:02:36.172Z,59.02
2023-04-04T00:05:02.878Z,58.76
2023-04-04T00:07:29.256Z,59.12
2023-04-04T00:09:55.827Z,58.82
2023-04-04T00:12:24.767Z,58.73
2023-04-04T00:14:53.397Z,59.68
2023-04-04T00:17:19.937Z,58.83
2023-04-04T00:19:46.494Z,58.92
2023-04-04T00:22:13.877Z,59.93
2023-04-04T00:24:40.681Z,59.34
2023-04-04T00:27:07.094Z,59.56
2023-04-04T00:29:34.426Z,59.28
2023-04-04T00:32:01.312Z,58.78
2023-04-04T00:34:27.796Z,59.78
2023-04-04T00:36:54.337Z,58.99
2023-04-04T00:39:20.871Z,60.09
2023-04-04T00:41:50.428Z,59.35
2023-04-04T00:44:17.062Z,60.03
2023-04-04T00:46:43.643Z,59.97
2023-04-04T00:49:10.291Z,59.32
2023-04-04T00:51:36.849Z,60.19
2023-04-04T00:54:03.836Z,60.04
2023-04-04T00:56:33.021Z,59.21
2023-04-04T00:59:00.825Z,59.88
2023-04-04T01:01:27.605Z,59.41
2023-04-04T01:03:54.641Z,60.10
2023-04-04T01:06:21.164Z,60.07
2023-04-04T01:08:48.455Z,60.61
2023-04-04T01:11:16.647Z,60.68
2023-04-04T01:13:43.965Z,59.78
2023-04-04T01:16:13.830Z,60.19
2023-04-04T01:18:42.152Z,60.31
2023-04-04T01:21:11.914Z,60.16
2023-04-04T01:23:59.965Z,60.91
2023-04-04T01:26:31.308Z,60.15
2023-04-04T01:29:01.058Z,60.92
2023-04-04T01:31:49.476Z,59.89
2023-04-04T01:34:28.603Z,60.71
2023-04-04T01:37:10.940Z,60.92
2023-04-04T01:39:49.541Z,60.37
2023-04-04T01:42:16.955Z,61.41
2023-04-04T01:44:46.508Z,61.66
2023-04-04T01:47:13.843Z,61.13
2023-04-04T01:49:40.871Z,60.94
2023-04-04T01:52:07.747Z,61.83
2023-04-04T01:54:35.987Z,61.59
2023-04-04T01:57:02.553Z,61.60
2023-04-04T01:59:29.900Z,61.95
2023-04-04T02:01:56.453Z,61.64
2023-04-04T02:04:23.142Z,62.09
2023-04-04T02:06:50.276Z,62.73
2023-04-04T02:09:16.786Z,62.17
2023-04-04T02:11:43.218Z,62.33
2023-04-04T02:14:09.784Z,62.24
2023-04-04T02:16:36.225Z,62.83
2023-04-04T02:19:02.838Z,61.80
2023-04-04T02:21:29.256Z,62.80
2023-04-04T02:23:55.716Z,62.94
2023-04-04T02:26:22.404Z,62.49
2023-04-04T02:28:48.815Z,61.83
2023-04-04T02:31:15.668Z,62.69
2023-04-04T02:33:42.246Z,62.19
2023-04-04T02:36:09.970Z,61.86
2023-04-04T02:38:36.529Z,62.28
2023-04-04T02:41:05.275Z,62.25
2023-04-04T02:43:31.687Z,62.36
2023-04-04T02:46:01.230Z,62.53
2023-04-04T02:48:32.064Z,62.16
2023-04-04T02:51:01.451Z,62.15
2023-04-04T02:53:28.475Z,62.37
2023-04-04T02:56:02.653Z,61.80
2023-04-04T02:58:31.053Z,62.10
2023-04-04T03:00:57.618Z,62.09
2023-04-04T03:03:28.792Z,61.88
2023-04-04T03:05:55.920Z,62.64
2023-04-04T03:08:22.516Z,61.98
2023-04-04T03:10:48.923Z,62.32
2023-04-04T03:13:15.350Z,62.53
2023-04-04T03:15:41.888Z,62.01
2023-04-04T03:18:08.452Z,62.12
2023-04-04T03:20:34.939Z,62.96
2023-04-04T03:23:01.391Z,61.87
2023-04-04T03:25:27.820Z,62.85
2023-04-04T03:27:54.788Z,62.33
2023-04-04T03:30:24.231Z,62.92
2023-04-04T03:32:50.878Z,62.18
2023-04-04T03:35:17.842Z,62.91
2023-04-04T03:37:44.426Z,62.75
2023-04-04T03:40:11.167Z,63.24
2023-04-04T03:42:38.293Z,63.08
2023-04-04T03:45:09.289Z,62.35
2023-04-04T03:47:36.886Z,63.33
2023-04-04T03:50:03.496Z,62.58
2023-04-04T03:52:31.837Z,62.70
2023-04-04T03:54:58.238Z,62.54
2023-04-04T03:57:27.110Z,62.50
2023-04-04T03:59:53.530Z,63.44
2023-04-04T04:02:21.782Z,62.57
2023-04-04T04:04:48.234Z,62.44
2023-04-04T04:07:14.648Z,63.71
2023-04-04T04:09:42.192Z,63.32
2023-04-04T04:12:08.738Z,63.13
2023-04-04T04:14:35.251Z,62.44
2023-04-04T04:17:02.572Z,62.96
2023-04-04T04:19:29.007Z,62.72
2023-04-04T04:21:56.416Z,63.40
2023-04-04T04:24:22.807Z,63.17
2023-04-04T04:26:49.282Z,63.54
2023-04-04T04:29:16.584Z,62.48
2023-04-04T04:31:43.373Z,62.83
2023-04-04T04:34:10.453Z,63.26
2023-04-04T04:36:38.816Z,62.93
2023-04-04T04:39:24.915Z,62.55
2023-04-04T04:42:03.535Z,62.83
2023-04-04T04:44:30.428Z,62.82
2023-04-04T04:46:57.111Z,62.89
2023-04-04T04:49:23.767Z,63.46
2023-04-04T04:51:51.402Z,62.81
2023-04-04T04:54:19.796Z,62.85
2023-04-04T04:56:52.190Z,62.78
2023-04-04T04:59:19.926Z,62.72
2023-04-04T05:01:47.171Z,62.42
2023-04-04T05:04:17.542Z,63.19
2023-04-04T05:06:56.197Z,62.53
2023-04-04T05:09:22.625Z,63.20
2023-04-04T05:11:49.544Z,62.56
2023-04-04T05:14:20.129Z,62.52
2023-04-04T05:16:52.368Z,62.99
2023-04-04T05:19:18.948Z,62.82
2023-04-04T05:21:50.263Z,63.32
2023-04-04T05:24:27.536Z,62.32
2023-04-04T05:26:54.199Z,63.11
2023-04-04T05:29:20.657Z,62.41
2023-04-04T05:31:49.049Z,62.98
2023-04-04T05:34:19.223Z,62.03
2023-04-04T05:36:47.572Z,62.37
2023-04-04T05:39:14.554Z,62.16
2023-04-04T05:41:51.428Z,61.55
2023-04-04T05:44:20.435Z,62.55
2023-04-04T05:46:46.965Z,62.10
2023-04-04T05:49:13.685Z,61.49
2023-04-04T05:51:46.240Z,62.03
2023-04-04T05:54:15.357Z,60.91
2023-04-04T05:56:42.973Z,61.69
2023-04-04T05:59:21.098Z,61.60
2023-04-04T06:01:58.617Z,60.57
2023-04-04T06:04:25.272Z,61.13
2023-04-04T06:06:53.773Z,60.85
2023-04-04T06:09:21.237Z,60.52
2023-04-04T06:11:47.699Z,60.22
2023-04-04T06:14:15.246Z,60.57
2023-04-04T06:16:42.654Z,60.15
2023-04-04T06:19:09.088Z,60.54
2023-04-04T06:21:35.488Z,60.51
2023-04-04T06:24:02.322Z,59.75
2023-04-04T06:26:28.876Z,60.30
2023-04-04T06:28:55.862Z,60.87
2023-04-04T06:31:34.190Z,60.53
2023-04-04T06:34:07.371Z,60.26
2023-04-04T06:36:42.823Z,60.31
2023-04-04T06:39:11.669Z,59.34
2023-04-04T06:41:38.131Z,58.96
2023-04-04T06:44:04.660Z,59.95
2023-04-04T06:46:33.047Z,58.88
2023-04-04T06:48:59.643Z,59.81
2023-04-04T06:51:26.042Z,59.37
2023-04-04T06:53:52.767Z,58.77
2023-04-04T06:56:19.204Z,59.30
2023-04-04T06:58:45.676Z,59.48
2023-04-04T07:01:12.301Z,59.42
2023-04-04T07:03:38.879Z,59.20
2023-04-04T07:06:05.985Z,59.07
2023-04-04T07:08:36.957Z,58.50
2023-04-04T07:11:04.497Z,58.34
2023-04-04T07:13:30.871Z,58.24
2023-04-04T07:15:57.254Z,58.49
2023-04-04T07:18:23.648Z,58.51
2023-04-04T07:20:50.094Z,58.39
2023-04-04T07:23:16.757Z,58.33
2023-04-04T07:25:44.440Z,58.21
2023-04-04T07:28:13.201Z,57.81
2023-04-04T07:30:39.974Z,57.59
2023-04-04T07:33:06.911Z,57.43
2023-04-04T07:35:34.740Z,56.67
2023-04-04T07:38:01.193Z,57.04
2023-04-04T07:40:27.564Z,56.30
2023-04-04T07:42:54.581Z,56.71
2023-04-04T07:45:24.190Z,56.43
2023-04-04T07:47:50.700Z,55.73
2023-04-04T07:50:17.203Z,55.90
2023-04-04T07:52:49.389Z,56.15
2023-04-04T07:55:16.839Z,56.02
2023-04-04T07:57:43.594Z,55.57
2023-04-04T08:00:10.645Z,55.50
2023-04-04T08:02:43.861Z,55.45
2023-04-04T08:05:10.695Z,55.45
2023-04-04T08:07:37.074Z,55.62
2023-04-04T08:10:03.659Z,54.81
2023-04-04T08:12:30.092Z,54.92
2023-04-04T08:14:56.554Z,54.51
2023-04-04T08:17:23.128Z,54.64
2023-04-04T08:19:49.552Z,54.84
2023-04-04T08:22:15.967Z,54.59
2023-04-04T08:24:42.731Z,54.07
2023-04-04T08:27:09.133Z,54.12
2023-04-04T08:29:35.638Z,54.03
2023-04-04T08:32:02.033Z,53.62
2023-04-04T08:34:28.690Z,53.75
2023-04-04T08:36:56.055Z,53.26
2023-04-04T08:39:22.624Z,52.82
2023-04-04T08:42:02.310Z,52.57
2023-04-04T08:44:30.101Z,52.14
2023-04-04T08:46:56.804Z,51.87
2023-04-04T08:49:26.523Z,51.96
2023-04-04T08:51:55.801Z,51.91
2023-04-04T08:54:24.488Z,52.09
2023-04-04T08:56:52.728Z,51.55
2023-04-04T08:59:20.363Z,50.13
2023-04-04T09:01:47.526Z,50.07
2023-04-04T09:04:13.930Z,49.68
2023-04-04T09:06:40.784Z,49.03
2023-04-04T09:09:07.689Z,48.44
2023-04-04T09:11:35.912Z,48.02
2023-04-04T09:14:04.618Z,47.48
2023-04-04T09:16:31.401Z,47.54
2023-04-04T09:18:57.864Z,47.64
2023-04-04T09:21:24.289Z,48.36
2023-04-04T09:24:01.417Z,48.64
2023-04-04T09:26:27.938Z,48.65
2023-04-04T09:28:55.575Z,48.95
2023-04-04T09:31:24.569Z,49.26
2023-04-04T09:33:51.194Z,48.29
2023-04-04T09:36:18.621Z,47.65
2023-04-04T09:38:49.391Z,48.00
2023-04-04T09:41:17.825Z,47.46
2023-04-04T09:43:45.552Z,47.89
2023-04-04T09:46:12.156Z,47.64
2023-04-04T09:48:38.561Z,47.67
2023-04-04T09:51:06.950Z,47.53
2023-04-04T09:53:36.292Z,47.27
2023-04-04T09:56:03.121Z,47.39
2023-04-04T09:58:31.931Z,47.29
2023-04-04T10:01:01.288Z,48.03
2023-04-04T10:03:29.162Z,47.63
2023-04-04T10:05:59.850Z,46.91
2023-04-04T10:08:28.752Z,47.52
2023-04-04T10:11:09.721Z,46.94
2023-04-04T10:13:41.445Z,46.63
2023-04-04T10:16:09.066Z,46.80
2023-04-04T10:18:36.703Z,46.69
2023-04-04T10:21:15.251Z,45.50
2023-04-04T10:23:45.475Z,46.37
2023-04-04T10:26:13.342Z,46.27
2023-04-04T10:28:40.321Z,46.33
2023-04-04T10:31:20.243Z,46.75
2023-04-04T10:33:53.930Z,46.04
2023-04-04T10:36:24.638Z,44.71
2023-04-04T10:39:32.618Z,44.89
2023-04-04T10:42:00.027Z,44.74
2023-04-04T10:44:33.708Z,45.64
2023-04-04T10:47:22.015Z,45.24
2023-04-04T10:49:50.021Z,44.80
2023-04-04T10:52:22.662Z,44.73
2023-04-04T10:54:55.391Z,44.29
2023-04-04T10:57:23.302Z,44.84
2023-04-04T11:00:06.527Z,42.95
2023-04-04T11:02:56.800Z,43.99
2023-04-04T11:05:33.136Z,43.17
2023-04-04T11:10:33.722Z,42.32
2023-04-04T11:13:12.668Z,42.96
2023-04-04T11:15:53.216Z,42.94
2023-04-04T11:18:32.589Z,43.47
2023-04-04T11:21:05.112Z,42.32
2023-04-04T11:23:49.677Z,42.64
2023-04-04T11:26:35.653Z,43.11
2023-04-04T11:29:04.097Z,43.13
2023-04-04T11:31:38.995Z,41.99
2023-04-04T11:34:11.266Z,42.18
2023-04-04T11:36:37.771Z,41.79
2023-04-04T11:39:11.931Z,41.62
2023-04-04T11:42:08.126Z,41.41
2023-04-04T11:44:41.688Z,40.51
2023-04-04T11:47:09.241Z,40.43
2023-04-04T11:49:41.587Z,40.05
2023-04-04T11:52:12.058Z,39.93
2023-04-04T11:54:40.144Z,40.21
2023-04-04T11:57:08.147Z,39.74
2023-04-04T11:59:40.612Z,39.77
2023-04-04T12:02:09.185Z,39.58
2023-04-04T12:04:45.349Z,39.24
2023-04-04T12:07:13.737Z,36.88
2023-04-04T12:09:40.641Z,37.76
2023-04-04T12:12:07.742Z,38.58
2023-04-04T12:14:34.251Z,38.36
2023-04-04T12:17:02.949Z,38.51
2023-04-04T12:19:29.777Z,39.19
2023-04-04T12:21:57.780Z,39.33
2023-04-04T12:24:24.391Z,38.93
2023-04-04T12:26:52.764Z,38.60
2023-04-04T12:29:21.825Z,38.22
2023-04-04T12:31:49.551Z,37.75
2023-04-04T12:34:23.226Z,37.56
2023-04-04T12:36:55.781Z,38.24
2023-04-04T12:39:23.190Z,37.84
2023-04-04T12:42:04.458Z,37.57
2023-04-04T12:44:39.300Z,37.54
2023-04-04T12:47:07.770Z,37.65
2023-04-04T12:49:39.273Z,37.17
2023-04-04T12:52:07.661Z,36.75
2023-04-04T12:54:37.291Z,36.02
2023-04-04T12:57:05.656Z,35.24
2023-04-04T12:59:34.419Z,35.13
2023-04-04T13:02:03.099Z,35.32
2023-04-04T13:04:29.630Z,35.28
2023-04-04T13:06:56.167Z,34.75
2023-04-04T13:09:23.575Z,34.67
2023-04-04T13:12:04.434Z,34.72
2023-04-04T13:14:56.844Z,34.24
2023-04-04T13:17:23.636Z,34.48
2023-04-04T13:19:51.568Z,34.91
2023-04-04T13:22:18.343Z,34.19
2023-04-04T13:24:44.766Z,34.30
2023-04-04T13:27:11.166Z,34.34
2023-04-04T13:29:37.608Z,35.14
2023-04-04T13:32:04.920Z,35.99
2023-04-04T13:34:31.525Z,35.58
2023-04-04T13:36:58.049Z,35.87
2023-04-04T13:39:25.076Z,36.41
2023-04-04T13:41:51.488Z,35.87
2023-04-04T13:44:17.880Z,35.26
2023-04-04T13:46:44.308Z,34.25
2023-04-04T13:49:11.023Z,34.40
2023-04-04T13:51:37.581Z,33.31
2023-04-04T13:54:04.032Z,33.52
2023-04-04T13:56:30.478Z,33.18
2023-04-04T13:58:57.032Z,32.13
2023-04-04T14:01:23.546Z,32.19
2023-04-04T14:03:50.254Z,32.36
2023-04-04T14:06:16.777Z,31.71
2023-04-04T14:08:43.264Z,32.34
2023-04-04T14:11:09.713Z,32.70
2023-04-04T14:13:36.785Z,32.36
2023-04-04T14:16:03.594Z,32.73
2023-04-04T14:18:30.186Z,33.24
2023-04-04T14:20:56.728Z,33.87
2023-04-04T14:23:26.409Z,32.94
2023-04-04T14:25:52.934Z,33.28
2023-04-04T14:28:19.410Z,33.70
2023-04-04T14:30:46.028Z,33.57
2023-04-04T14:33:12.518Z,33.51
2023-04-04T14:35:39.314Z,33.20
2023-04-04T14:38:05.993Z,32.97
2023-04-04T14:40:32.380Z,32.91
2023-04-04T14:42:58.886Z,33.35
2023-04-04T14:45:26.059Z,33.50
2023-04-04T14:47:52.512Z,33.68
2023-04-04T14:50:18.936Z,34.17
2023-04-04T14:52:45.399Z,34.23
2023-04-04T14:55:12.213Z,34.15
2023-04-04T14:57:46.973Z,33.63
2023-04-04T15:00:24.067Z,33.86
2023-04-04T15:02:51.233Z,33.16
2023-04-04T15:05:19.612Z,33.18
2023-04-04T15:07:46.765Z,32.38
2023-04-04T15:10:13.746Z,31.98
2023-04-04T15:12:40.224Z,31.87
2023-04-04T15:15:07.223Z,31.56
2023-04-04T15:17:33.692Z,31.54
2023-04-04T15:20:00.179Z,31.53
2023-04-04T15:22:26.685Z,31.59
2023-04-04T15:24:53.158Z,30.84
2023-04-04T15:27:19.805Z,30.60
2023-04-04T15:29:46.407Z,30.47
2023-04-04T15:32:13.223Z,30.84
2023-04-04T15:34:40.535Z,31.56
2023-04-04T15:37:09.496Z,31.70
2023-04-04T15:39:46.072Z,32.39
2023-04-04T15:42:18.574Z,32.39
2023-04-04T15:44:44.961Z,32.71
2023-04-04T15:47:11.478Z,33.22
2023-04-04T15:49:37.979Z,33.29
2023-04-04T15:52:04.631Z,33.36
2023-04-04T15:54:31.431Z,33.73
2023-04-04T15:56:57.856Z,33.76
2023-04-04T15:59:24.333Z,33.78
2023-04-04T16:01:51.177Z,33.61
2023-04-04T16:04:17.699Z,33.48
2023-04-04T16:06:44.150Z,33.89
2023-04-04T16:09:10.604Z,34.31
2023-04-04T16:11:37.797Z,34.72
2023-04-04T16:14:05.885Z,35.32
2023-04-04T16:16:32.355Z,35.27
2023-04-04T16:18:58.906Z,35.62
2023-04-04T16:21:26.462Z,35.54
2023-04-04T16:23:52.866Z,35.39
2023-04-04T16:26:20.647Z,34.47
2023-04-04T16:28:47.435Z,34.36
2023-04-04T16:31:17.567Z,34.02
2023-04-04T16:33:44.082Z,33.47
2023-04-04T16:36:10.680Z,32.82
2023-04-04T16:38:37.117Z,33.38
2023-04-04T16:41:04.839Z,32.55
2023-04-04T16:43:31.350Z,33.38
2023-04-04T16:45:57.777Z,33.16
2023-04-04T16:48:24.244Z,33.12
2023-04-04T16:50:50.906Z,33.27
2023-04-04T16:53:17.365Z,33.01
2023-04-04T16:55:43.766Z,32.87
2023-04-04T16:58:10.267Z,33.17
2023-04-04T17:00:36.691Z,33.54
2023-04-04T17:03:03.607Z,33.57
2023-04-04T17:05:30.105Z,32.78
2023-04-04T17:07:56.710Z,31.68
2023-04-04T17:10:23.129Z,29.46
2023-04-04T17:12:49.717Z,27.68
2023-04-04T17:15:17.884Z,27.51
2023-04-04T17:17:45.057Z,28.66
2023-04-04T17:20:17.517Z,30.23
2023-04-04T17:22:45.362Z,31.66
2023-04-04T17:25:12.004Z,32.59
2023-04-04T17:27:38.450Z,33.97
2023-04-04T17:30:05.626Z,34.49
2023-04-04T17:32:32.119Z,34.99
2023-04-04T17:34:58.547Z,35.42
2023-04-04T17:37:24.992Z,36.20
2023-04-04T17:39:51.434Z,37.64
2023-04-04T17:42:17.879Z,37.91
2023-04-04T17:44:44.260Z,38.29
2023-04-04T17:47:12.182Z,39.20
2023-04-04T17:49:39.726Z,39.33
2023-04-04T17:52:06.248Z,40.48
2023-04-04T17:54:33.020Z,39.89
2023-04-04T17:57:00.198Z,40.55
2023-04-04T17:59:27.739Z,41.34
2023-04-04T18:01:54.409Z,41.30
2023-04-04T18:04:22.186Z,41.67
2023-04-04T18:06:48.642Z,41.80
2023-04-04T18:09:15.112Z,42.17
2023-04-04T18:11:41.739Z,41.46
2023-04-04T18:14:08.641Z,41.97
2023-04-04T18:16:39.810Z,41.68
2023-04-04T18:19:07.976Z,42.62
2023-04-04T18:21:34.352Z,43.11
2023-04-04T18:24:01.466Z,42.34
2023-04-04T18:26:28.160Z,43.21
2023-04-04T18:28:54.587Z,42.92
2023-04-04T18:31:21.477Z,42.99
2023-04-04T18:33:49.794Z,43.27
2023-04-04T18:36:16.385Z,43.83
2023-04-04T18:38:42.852Z,43.79
2023-04-04T18:41:09.896Z,43.92
2023-04-04T18:43:37.302Z,43.79
2023-04-04T18:46:05.637Z,43.84
2023-04-04T18:48:33.601Z,43.83
2023-04-04T18:51:00.563Z,44.45
2023-04-04T18:53:29.688Z,44.38
2023-04-04T18:55:59.560Z,44.50
2023-04-04T18:58:26.590Z,44.50
2023-04-04T19:00:55.528Z,44.82
2023-04-04T19:03:22.348Z,44.58
2023-04-04T19:05:49.607Z,44.56
2023-04-04T19:08:17.796Z,44.69
2023-04-04T19:10:47.258Z,45.00
2023-04-04T19:13:15.026Z,45.10
2023-04-04T19:15:42.967Z,45.35
2023-04-04T19:18:10.612Z,45.74
2023-04-04T19:20:37.249Z,45.48
2023-04-04T19:23:03.816Z,45.54
2023-04-04T19:25:30.564Z,45.83
2023-04-04T19:27:57.350Z,46.70
2023-04-04T19:30:47.139Z,45.94
2023-04-04T19:33:18.530Z,46.15
2023-04-04T19:36:08.279Z,46.07
2023-04-04T19:38:37.238Z,46.11
2023-04-04T19:41:08.919Z,46.15
2023-04-04T19:43:35.920Z,46.29
2023-04-04T19:46:09.480Z,46.13
2023-04-04T19:48:38.629Z,46.32
2023-04-04T19:51:36.185Z,47.09
2023-04-04T19:54:02.671Z,47.29
2023-04-04T19:56:29.124Z,47.70
2023-04-04T19:59:05.294Z,48.41
2023-04-04T20:01:34.775Z,48.15
2023-04-04T20:04:10.234Z,49.01
2023-04-04T20:06:38.264Z,48.47
2023-04-04T20:09:12.992Z,48.71
2023-04-04T20:11:39.865Z,49.16
2023-04-04T20:14:07.851Z,48.94
2023-04-04T20:16:34.442Z,48.92
2023-04-04T20:19:03.464Z,49.22
2023-04-04T20:21:33.747Z,48.96
2023-04-04T20:24:05.923Z,49.10
2023-04-04T20:26:47.826Z,49.22
2023-04-04T20:29:16.840Z,48.98
2023-04-04T20:31:55.480Z,48.91
2023-04-04T20:34:38.353Z,49.20
2023-04-04T20:37:12.525Z,49.01
2023-04-04T20:39:55.224Z,49.20
2023-04-04T20:42:30.764Z,49.00
2023-04-04T20:45:08.475Z,49.38
2023-04-04T20:47:45.397Z,49.51
2023-04-04T20:50:17.797Z,49.50
2023-04-04T20:52:52.988Z,49.86
2023-04-04T20:55:22.392Z,49.50
2023-04-04T20:57:50.811Z,49.56
2023-04-04T21:00:29.569Z,49.51
2023-04-04T21:02:58.531Z,50.14
2023-04-04T21:05:33.418Z,49.72
2023-04-04T21:08:01.546Z,50.13
2023-04-04T21:10:28.350Z,50.18
2023-04-04T21:13:00.851Z,50.53
2023-04-04T21:15:30.048Z,50.42
2023-04-04T21:18:02.212Z,50.42
2023-04-04T21:21:01.174Z,50.86
2023-04-04T21:23:27.544Z,50.61
2023-04-04T21:26:04.860Z,50.84
2023-04-04T21:28:33.467Z,50.91
2023-04-04T21:31:01.188Z,50.71
2023-04-04T21:33:27.752Z,50.32
2023-04-04T21:35:56.068Z,50.55
2023-04-04T21:38:33.757Z,50.67
2023-04-04T21:41:22.499Z,50.48
2023-04-04T21:43:49.056Z,50.39
2023-04-04T21:46:15.488Z,50.60
2023-04-04T21:48:42.311Z,50.76
2023-04-04T21:51:08.715Z,50.90
2023-04-04T21:53:35.215Z,50.73
2023-04-04T21:56:01.647Z,50.90
2023-04-04T21:58:29.336Z,50.85
2023-04-04T22:00:55.884Z,50.48
2023-04-04T22:03:22.330Z,51.20
2023-04-04T22:05:48.991Z,51.24
2023-04-04T22:08:15.511Z,51.27
2023-04-04T22:10:50.162Z,51.08
2023-04-04T22:13:18.616Z,51.27
2023-04-04T22:15:46.912Z,51.05
2023-04-04T22:18:17.146Z,51.09
2023-04-04T22:20:47.774Z,51.14
2023-04-04T22:23:17.652Z,51.90
2023-04-04T22:25:44.276Z,52.06
2023-04-04T22:28:10.769Z,52.33
2023-04-04T22:30:39.143Z,51.92
2023-04-04T22:33:05.896Z,52.42
2023-04-04T22:35:32.833Z,52.70
2023-04-04T22:38:03.531Z,52.27
2023-04-04T22:40:31.910Z,51.79
2023-04-04T22:42:59.399Z,52.62
2023-04-04T22:45:26.717Z,52.43
2023-04-04T22:47:53.266Z,52.43
2023-04-04T22:50:23.145Z,52.83
2023-04-04T22:52:49.950Z,52.98
2023-04-04T22:55:20.221Z,52.77
2023-04-04T22:57:46.841Z,52.71
2023-04-04T23:00:14.657Z,52.59
2023-04-04T23:02:42.619Z,53.49
2023-04-04T23:05:10.575Z,53.03
2023-04-04T23:07:38.004Z,53.16
2023-04-04T23:10:06.005Z,52.94
2023-04-04T23:12:32.888Z,53.31
2023-04-04T23:15:01.445Z,53.40
2023-04-04T23:17:28.081Z,53.20
2023-04-04T23:19:54.818Z,53.40
2023-04-04T23:22:21.464Z,54.12
2023-04-04T23:24:48.472Z,53.48
2023-04-04T23:27:15.673Z,53.62
2023-04-04T23:29:42.978Z,53.85
2023-04-04T23:32:10.062Z,54.17
2023-04-04T23:34:36.588Z,53.70
2023-04-04T23:37:03.804Z,54.43
2023-04-04T23:39:30.279Z,53.98
2023-04-04T23:41:58.238Z,53.79
2023-04-04T23:44:24.689Z,54.12
2023-04-04T23:46:51.452Z,54.12
2023-04-04T23:49:18.081Z,54.65
2023-04-04T23:51:44.799Z,54.39
2023-04-04T23:54:12.811Z,54.47
2023-04-04T23:56:39.855Z,55.07
2023-04-04T23:59:06.518Z,54.24
